sensor_id;sensor_type;location;lat;lon;timestamp;P1;durP1;ratioP1;P2;durP2;ratioP2
10894;SDS011;5500;49.886;8.074;2023-02-07T00:02:22;2.77;;;2.57;;
10894;SDS011;5500;49.886;8.074;2023-02-07T00:04:50;2.97;;;2.73;;
10894;SDS011;5500;49.886;8.074;2023-02-07T00:07:19;3.27;;;2.63;;
10894;SDS011;5500;49.886;8.074;2023-02-07T00:09:47;2.83;;;2.57;;
10894;SDS011;5500;49.886;8.074;2023-02-07T00:12:15;2.90;;;2.70;;
10894;SDS011;5500;49.886;8.074;2023-02-07T00:14:43;3.17;;;2.70;;
10894;SDS011;5500;49.886;8.074;2023-02-07T00:17:10;3.37;;;2.70;;
10894;SDS011;5500;49.886;8.074;2023-02-07T00:19:38;3.30;;;2.83;;
10894;SDS011;5500;49.886;8.074;2023-02-07T00:22:06;3.70;;;2.90;;
10894;SDS011;5500;49.886;8.074;2023-02-07T00:24:35;3.23;;;2.57;;
10894;SDS011;5500;49.886;8.074;2023-02-07T00:27:02;2.67;;;2.47;;
10894;SDS011;5500;49.886;8.074;2023-02-07T00:29:30;2.47;;;2.03;;
10894;SDS011;5500;49.886;8.074;2023-02-07T00:31:58;2.47;;;2.27;;
10894;SDS011;5500;49.886;8.074;2023-02-07T00:34:26;4.77;;;2.50;;
10894;SDS011;5500;49.886;8.074;2023-02-07T00:36:53;2.60;;;2.37;;
10894;SDS011;5500;49.886;8.074;2023-02-07T00:39:21;3.30;;;2.70;;
10894;SDS011;5500;49.886;8.074;2023-02-07T00:41:50;3.47;;;2.67;;
10894;SDS011;5500;49.886;8.074;2023-02-07T00:44:18;3.87;;;2.87;;
10894;SDS011;5500;49.886;8.074;2023-02-07T00:46:46;3.00;;;2.50;;
10894;SDS011;5500;49.886;8.074;2023-02-07T00:49:14;2.50;;;2.30;;
10894;SDS011;5500;49.886;8.074;2023-02-07T00:51:42;2.30;;;2.10;;
10894;SDS011;5500;49.886;8.074;2023-02-07T00:54:09;5.57;;;2.30;;
10894;SDS011;5500;49.886;8.074;2023-02-07T00:56:37;2.97;;;2.70;;
10894;SDS011;5500;49.886;8.074;2023-02-07T00:59:06;4.20;;;2.20;;
10894;SDS011;5500;49.886;8.074;2023-02-07T01:01:34;2.90;;;2.40;;
10894;SDS011;5500;49.886;8.074;2023-02-07T01:04:02;2.37;;;2.17;;
10894;SDS011;5500;49.886;8.074;2023-02-07T01:06:29;2.67;;;2.27;;
10894;SDS011;5500;49.886;8.074;2023-02-07T01:08:59;2.77;;;2.30;;
10894;SDS011;5500;49.886;8.074;2023-02-07T01:11:28;2.27;;;2.07;;
10894;SDS011;5500;49.886;8.074;2023-02-07T01:13:56;2.40;;;2.20;;
10894;SDS011;5500;49.886;8.074;2023-02-07T01:16:26;2.77;;;2.30;;
10894;SDS011;5500;49.886;8.074;2023-02-07T01:18:55;2.60;;;2.30;;
10894;SDS011;5500;49.886;8.074;2023-02-07T01:21:24;2.60;;;2.40;;
10894;SDS011;5500;49.886;8.074;2023-02-07T01:23:53;2.33;;;2.13;;
10894;SDS011;5500;49.886;8.074;2023-02-07T01:26:22;2.23;;;2.03;;
10894;SDS011;5500;49.886;8.074;2023-02-07T01:28:50;2.67;;;2.40;;
10894;SDS011;5500;49.886;8.074;2023-02-07T01:31:18;2.57;;;2.37;;
10894;SDS011;5500;49.886;8.074;2023-02-07T01:33:51;2.13;;;1.93;;
10894;SDS011;5500;49.886;8.074;2023-02-07T01:36:19;2.47;;;2.27;;
10894;SDS011;5500;49.886;8.074;2023-02-07T01:38:47;2.57;;;2.27;;
10894;SDS011;5500;49.886;8.074;2023-02-07T01:41:15;2.30;;;2.10;;
10894;SDS011;5500;49.886;8.074;2023-02-07T01:43:56;2.60;;;2.10;;
10894;SDS011;5500;49.886;8.074;2023-02-07T01:46:26;2.70;;;2.50;;
10894;SDS011;5500;49.886;8.074;2023-02-07T01:48:56;2.70;;;2.50;;
10894;SDS011;5500;49.886;8.074;2023-02-07T01:51:25;2.40;;;2.20;;
10894;SDS011;5500;49.886;8.074;2023-02-07T01:53:54;3.07;;;1.87;;
10894;SDS011;5500;49.886;8.074;2023-02-07T01:56:24;3.13;;;2.30;;
10894;SDS011;5500;49.886;8.074;2023-02-07T01:58:57;2.47;;;2.27;;
10894;SDS011;5500;49.886;8.074;2023-02-07T02:01:25;2.43;;;2.20;;
10894;SDS011;5500;49.886;8.074;2023-02-07T02:03:54;2.60;;;2.10;;
10894;SDS011;5500;49.886;8.074;2023-02-07T02:06:24;2.40;;;2.17;;
10894;SDS011;5500;49.886;8.074;2023-02-07T02:08:54;2.33;;;2.13;;
10894;SDS011;5500;49.886;8.074;2023-02-07T02:11:28;2.23;;;2.03;;
10894;SDS011;5500;49.886;8.074;2023-02-07T02:14:20;2.30;;;2.10;;
10894;SDS011;5500;49.886;8.074;2023-02-07T02:16:55;4.13;;;2.17;;
10894;SDS011;5500;49.886;8.074;2023-02-07T02:19:50;2.57;;;2.00;;
10894;SDS011;5500;49.886;8.074;2023-02-07T02:22:51;2.77;;;2.20;;
10894;SDS011;5500;49.886;8.074;2023-02-07T02:25:36;2.50;;;2.30;;
10894;SDS011;5500;49.886;8.074;2023-02-07T02:35:43;6.43;;;2.70;;
10894;SDS011;5500;49.886;8.074;2023-02-07T02:38:14;2.97;;;2.67;;
10894;SDS011;5500;49.886;8.074;2023-02-07T02:40:45;2.80;;;2.30;;
10894;SDS011;5500;49.886;8.074;2023-02-07T02:43:18;2.63;;;2.43;;
10894;SDS011;5500;49.886;8.074;2023-02-07T02:45:52;3.00;;;2.70;;
10894;SDS011;5500;49.886;8.074;2023-02-07T02:48:23;4.53;;;2.50;;
10894;SDS011;5500;49.886;8.074;2023-02-07T02:55:51;2.93;;;2.63;;
10894;SDS011;5500;49.886;8.074;2023-02-07T02:58:41;2.70;;;2.50;;
10894;SDS011;5500;49.886;8.074;2023-02-07T03:06:16;3.40;;;2.80;;
10894;SDS011;5500;49.886;8.074;2023-02-07T03:08:50;2.60;;;2.40;;
10894;SDS011;5500;49.886;8.074;2023-02-07T03:11:22;3.13;;;2.83;;
10894;SDS011;5500;49.886;8.074;2023-02-07T03:13:54;3.63;;;3.33;;
10894;SDS011;5500;49.886;8.074;2023-02-07T03:16:27;3.63;;;3.20;;
10894;SDS011;5500;49.886;8.074;2023-02-07T03:19:00;3.60;;;2.80;;
10894;SDS011;5500;49.886;8.074;2023-02-07T03:34:13;3.37;;;2.87;;
10894;SDS011;5500;49.886;8.074;2023-02-07T03:36:44;3.53;;;3.23;;
10894;SDS011;5500;49.886;8.074;2023-02-07T03:39:15;3.83;;;3.10;;
10894;SDS011;5500;49.886;8.074;2023-02-07T03:41:45;3.73;;;3.30;;
10894;SDS011;5500;49.886;8.074;2023-02-07T03:44:17;3.90;;;3.27;;
10894;SDS011;5500;49.886;8.074;2023-02-07T03:46:47;4.70;;;3.23;;
10894;SDS011;5500;49.886;8.074;2023-02-07T03:49:17;3.83;;;3.23;;
10894;SDS011;5500;49.886;8.074;2023-02-07T03:51:45;4.50;;;3.60;;
10894;SDS011;5500;49.886;8.074;2023-02-07T03:54:13;3.77;;;3.37;;
10894;SDS011;5500;49.886;8.074;2023-02-07T03:56:40;4.90;;;3.60;;
10894;SDS011;5500;49.886;8.074;2023-02-07T03:59:08;5.10;;;3.60;;
10894;SDS011;5500;49.886;8.074;2023-02-07T04:01:36;3.53;;;3.23;;
10894;SDS011;5500;49.886;8.074;2023-02-07T04:04:07;3.77;;;3.37;;
10894;SDS011;5500;49.886;8.074;2023-02-07T04:06:39;4.33;;;3.73;;
10894;SDS011;5500;49.886;8.074;2023-02-07T04:09:06;5.37;;;3.87;;
10894;SDS011;5500;49.886;8.074;2023-02-07T04:11:37;4.00;;;3.60;;
10894;SDS011;5500;49.886;8.074;2023-02-07T04:14:04;4.37;;;3.70;;
10894;SDS011;5500;49.886;8.074;2023-02-07T04:16:32;3.87;;;3.47;;
10894;SDS011;5500;49.886;8.074;2023-02-07T04:19:00;4.57;;;3.37;;
10894;SDS011;5500;49.886;8.074;2023-02-07T04:21:27;4.37;;;3.87;;
10894;SDS011;5500;49.886;8.074;2023-02-07T04:23:56;3.93;;;3.30;;
10894;SDS011;5500;49.886;8.074;2023-02-07T04:26:24;3.93;;;3.53;;
10894;SDS011;5500;49.886;8.074;2023-02-07T04:28:51;4.77;;;4.23;;
10894;SDS011;5500;49.886;8.074;2023-02-07T04:31:19;4.03;;;3.63;;
10894;SDS011;5500;49.886;8.074;2023-02-07T04:33:47;10.43;;;4.33;;
10894;SDS011;5500;49.886;8.074;2023-02-07T04:36:15;5.17;;;4.23;;
10894;SDS011;5500;49.886;8.074;2023-02-07T04:38:42;3.90;;;3.50;;
10894;SDS011;5500;49.886;8.074;2023-02-07T04:41:11;4.50;;;4.10;;
10894;SDS011;5500;49.886;8.074;2023-02-07T04:43:39;4.93;;;4.17;;
10894;SDS011;5500;49.886;8.074;2023-02-07T04:46:07;5.03;;;4.50;;
10894;SDS011;5500;49.886;8.074;2023-02-07T04:48:35;5.33;;;4.30;;
10894;SDS011;5500;49.886;8.074;2023-02-07T04:51:03;5.27;;;4.53;;
10894;SDS011;5500;49.886;8.074;2023-02-07T04:53:31;6.70;;;3.83;;
10894;SDS011;5500;49.886;8.074;2023-02-07T04:55:59;5.27;;;4.07;;
10894;SDS011;5500;49.886;8.074;2023-02-07T04:58:28;5.93;;;4.67;;
10894;SDS011;5500;49.886;8.074;2023-02-07T05:00:56;4.90;;;4.37;;
10894;SDS011;5500;49.886;8.074;2023-02-07T05:03:23;6.63;;;5.00;;
10894;SDS011;5500;49.886;8.074;2023-02-07T05:05:51;9.93;;;5.03;;
10894;SDS011;5500;49.886;8.074;2023-02-07T05:08:20;6.13;;;4.73;;
10894;SDS011;5500;49.886;8.074;2023-02-07T05:10:51;7.07;;;4.50;;
10894;SDS011;5500;49.886;8.074;2023-02-07T05:13:20;7.83;;;4.80;;
10894;SDS011;5500;49.886;8.074;2023-02-07T05:15:49;5.47;;;4.97;;
10894;SDS011;5500;49.886;8.074;2023-02-07T05:18:17;7.40;;;5.17;;
10894;SDS011;5500;49.886;8.074;2023-02-07T05:20:46;6.70;;;5.20;;
10894;SDS011;5500;49.886;8.074;2023-02-07T05:23:16;6.20;;;5.23;;
10894;SDS011;5500;49.886;8.074;2023-02-07T05:25:45;7.07;;;5.47;;
10894;SDS011;5500;49.886;8.074;2023-02-07T05:28:14;5.50;;;4.70;;
10894;SDS011;5500;49.886;8.074;2023-02-07T05:30:42;9.30;;;5.80;;
10894;SDS011;5500;49.886;8.074;2023-02-07T05:33:11;7.07;;;5.77;;
10894;SDS011;5500;49.886;8.074;2023-02-07T05:35:39;11.87;;;8.00;;
10894;SDS011;5500;49.886;8.074;2023-02-07T05:38:07;16.70;;;10.13;;
10894;SDS011;5500;49.886;8.074;2023-02-07T05:40:36;8.17;;;6.23;;
10894;SDS011;5500;49.886;8.074;2023-02-07T05:43:05;6.87;;;5.70;;
10894;SDS011;5500;49.886;8.074;2023-02-07T05:45:33;12.93;;;9.10;;
10894;SDS011;5500;49.886;8.074;2023-02-07T05:48:01;6.90;;;5.93;;
10894;SDS011;5500;49.886;8.074;2023-02-07T05:50:30;8.67;;;6.10;;
10894;SDS011;5500;49.886;8.074;2023-02-07T05:52:58;8.33;;;6.23;;
10894;SDS011;5500;49.886;8.074;2023-02-07T05:55:26;8.10;;;6.47;;
10894;SDS011;5500;49.886;8.074;2023-02-07T05:57:54;8.10;;;6.57;;
10894;SDS011;5500;49.886;8.074;2023-02-07T06:00:22;9.60;;;6.97;;
10894;SDS011;5500;49.886;8.074;2023-02-07T06:02:50;8.87;;;6.87;;
10894;SDS011;5500;49.886;8.074;2023-02-07T06:05:18;7.43;;;6.40;;
10894;SDS011;5500;49.886;8.074;2023-02-07T06:07:48;10.07;;;6.67;;
10894;SDS011;5500;49.886;8.074;2023-02-07T06:10:16;9.63;;;6.80;;
10894;SDS011;5500;49.886;8.074;2023-02-07T06:12:45;11.47;;;7.77;;
10894;SDS011;5500;49.886;8.074;2023-02-07T06:15:12;10.73;;;7.37;;
10894;SDS011;5500;49.886;8.074;2023-02-07T06:17:40;12.77;;;8.03;;
10894;SDS011;5500;49.886;8.074;2023-02-07T06:20:08;9.60;;;7.47;;
10894;SDS011;5500;49.886;8.074;2023-02-07T06:22:36;9.37;;;7.07;;
10894;SDS011;5500;49.886;8.074;2023-02-07T06:25:06;11.13;;;7.87;;
10894;SDS011;5500;49.886;8.074;2023-02-07T06:27:37;10.07;;;7.73;;
10894;SDS011;5500;49.886;8.074;2023-02-07T06:30:05;11.63;;;7.97;;
10894;SDS011;5500;49.886;8.074;2023-02-07T06:32:33;10.97;;;7.93;;
10894;SDS011;5500;49.886;8.074;2023-02-07T06:35:01;11.27;;;7.87;;
10894;SDS011;5500;49.886;8.074;2023-02-07T06:37:29;11.70;;;8.33;;
10894;SDS011;5500;49.886;8.074;2023-02-07T06:39:57;12.67;;;8.23;;
10894;SDS011;5500;49.886;8.074;2023-02-07T06:42:26;11.73;;;8.80;;
10894;SDS011;5500;49.886;8.074;2023-02-07T06:44:53;15.67;;;9.30;;
10894;SDS011;5500;49.886;8.074;2023-02-07T06:47:21;13.93;;;9.93;;
10894;SDS011;5500;49.886;8.074;2023-02-07T06:49:49;10.00;;;7.97;;
10894;SDS011;5500;49.886;8.074;2023-02-07T06:52:17;10.90;;;8.00;;
10894;SDS011;5500;49.886;8.074;2023-02-07T06:54:44;11.70;;;8.03;;
10894;SDS011;5500;49.886;8.074;2023-02-07T06:57:12;12.40;;;9.20;;
10894;SDS011;5500;49.886;8.074;2023-02-07T06:59:41;12.03;;;8.53;;
10894;SDS011;5500;49.886;8.074;2023-02-07T07:02:09;13.70;;;9.73;;
10894;SDS011;5500;49.886;8.074;2023-02-07T07:04:37;12.43;;;8.30;;
10894;SDS011;5500;49.886;8.074;2023-02-07T07:07:05;11.83;;;8.80;;
10894;SDS011;5500;49.886;8.074;2023-02-07T07:09:33;11.23;;;8.63;;
10894;SDS011;5500;49.886;8.074;2023-02-07T07:12:01;14.57;;;9.43;;
10894;SDS011;5500;49.886;8.074;2023-02-07T07:14:29;14.00;;;9.67;;
10894;SDS011;5500;49.886;8.074;2023-02-07T07:16:59;15.87;;;9.23;;
10894;SDS011;5500;49.886;8.074;2023-02-07T07:19:26;10.87;;;8.67;;
10894;SDS011;5500;49.886;8.074;2023-02-07T07:21:54;12.80;;;9.10;;
10894;SDS011;5500;49.886;8.074;2023-02-07T07:24:21;12.17;;;9.17;;
10894;SDS011;5500;49.886;8.074;2023-02-07T07:26:49;11.00;;;8.43;;
10894;SDS011;5500;49.886;8.074;2023-02-07T07:29:18;11.57;;;9.07;;
10894;SDS011;5500;49.886;8.074;2023-02-07T07:31:45;13.53;;;9.17;;
10894;SDS011;5500;49.886;8.074;2023-02-07T07:34:15;13.00;;;9.07;;
10894;SDS011;5500;49.886;8.074;2023-02-07T07:36:42;10.53;;;8.40;;
10894;SDS011;5500;49.886;8.074;2023-02-07T07:39:10;11.77;;;9.07;;
10894;SDS011;5500;49.886;8.074;2023-02-07T07:41:38;14.03;;;9.40;;
10894;SDS011;5500;49.886;8.074;2023-02-07T07:44:06;11.63;;;9.13;;
10894;SDS011;5500;49.886;8.074;2023-02-07T07:46:33;11.63;;;9.77;;
10894;SDS011;5500;49.886;8.074;2023-02-07T07:49:01;13.90;;;9.83;;
10894;SDS011;5500;49.886;8.074;2023-02-07T07:51:30;11.90;;;9.33;;
10894;SDS011;5500;49.886;8.074;2023-02-07T07:53:58;14.60;;;9.77;;
10894;SDS011;5500;49.886;8.074;2023-02-07T07:56:25;12.67;;;8.70;;
10894;SDS011;5500;49.886;8.074;2023-02-07T07:58:54;10.53;;;8.50;;
10894;SDS011;5500;49.886;8.074;2023-02-07T08:01:22;15.80;;;9.33;;
10894;SDS011;5500;49.886;8.074;2023-02-07T08:03:50;12.00;;;9.70;;
10894;SDS011;5500;49.886;8.074;2023-02-07T08:06:18;14.00;;;9.70;;
10894;SDS011;5500;49.886;8.074;2023-02-07T08:08:47;14.30;;;9.90;;
10894;SDS011;5500;49.886;8.074;2023-02-07T08:11:15;17.13;;;10.23;;
10894;SDS011;5500;49.886;8.074;2023-02-07T08:13:42;14.57;;;10.30;;
10894;SDS011;5500;49.886;8.074;2023-02-07T08:18:48;15.07;;;9.80;;
10894;SDS011;5500;49.886;8.074;2023-02-07T08:21:15;15.27;;;9.97;;
10894;SDS011;5500;49.886;8.074;2023-02-07T08:23:43;14.23;;;9.90;;
10894;SDS011;5500;49.886;8.074;2023-02-07T08:26:12;13.67;;;9.80;;
10894;SDS011;5500;49.886;8.074;2023-02-07T08:28:40;12.63;;;9.10;;
10894;SDS011;5500;49.886;8.074;2023-02-07T08:31:08;11.67;;;9.90;;
10894;SDS011;5500;49.886;8.074;2023-02-07T08:33:38;13.07;;;9.73;;
10894;SDS011;5500;49.886;8.074;2023-02-07T08:36:06;14.00;;;10.20;;
10894;SDS011;5500;49.886;8.074;2023-02-07T08:38:36;13.57;;;9.33;;
10894;SDS011;5500;49.886;8.074;2023-02-07T08:41:04;13.37;;;9.37;;
10894;SDS011;5500;49.886;8.074;2023-02-07T08:43:33;12.90;;;9.23;;
10894;SDS011;5500;49.886;8.074;2023-02-07T08:46:00;14.90;;;9.87;;
10894;SDS011;5500;49.886;8.074;2023-02-07T08:48:28;12.60;;;9.80;;
10894;SDS011;5500;49.886;8.074;2023-02-07T08:50:56;13.63;;;9.37;;
10894;SDS011;5500;49.886;8.074;2023-02-07T08:53:24;14.73;;;9.70;;
10894;SDS011;5500;49.886;8.074;2023-02-07T08:55:51;11.87;;;9.60;;
10894;SDS011;5500;49.886;8.074;2023-02-07T08:58:19;12.90;;;9.27;;
10894;SDS011;5500;49.886;8.074;2023-02-07T09:00:48;10.63;;;8.63;;
10894;SDS011;5500;49.886;8.074;2023-02-07T09:03:16;13.37;;;9.20;;
10894;SDS011;5500;49.886;8.074;2023-02-07T09:05:43;15.03;;;9.27;;
10894;SDS011;5500;49.886;8.074;2023-02-07T09:08:11;11.40;;;9.40;;
10894;SDS011;5500;49.886;8.074;2023-02-07T09:10:38;10.40;;;8.47;;
10894;SDS011;5500;49.886;8.074;2023-02-07T09:13:07;12.80;;;9.33;;
10894;SDS011;5500;49.886;8.074;2023-02-07T09:15:34;12.33;;;8.03;;
10894;SDS011;5500;49.886;8.074;2023-02-07T09:18:03;13.07;;;9.20;;
10894;SDS011;5500;49.886;8.074;2023-02-07T09:20:31;11.47;;;8.40;;
10894;SDS011;5500;49.886;8.074;2023-02-07T09:22:59;12.30;;;9.37;;
10894;SDS011;5500;49.886;8.074;2023-02-07T09:25:46;12.80;;;9.03;;
10894;SDS011;5500;49.886;8.074;2023-02-07T09:28:14;11.50;;;7.47;;
10894;SDS011;5500;49.886;8.074;2023-02-07T09:30:43;13.83;;;7.90;;
10894;SDS011;5500;49.886;8.074;2023-02-07T09:33:13;11.23;;;8.17;;
10894;SDS011;5500;49.886;8.074;2023-02-07T09:35:42;11.60;;;7.80;;
10894;SDS011;5500;49.886;8.074;2023-02-07T09:38:12;12.33;;;8.33;;
10894;SDS011;5500;49.886;8.074;2023-02-07T09:40:40;12.63;;;8.97;;
10894;SDS011;5500;49.886;8.074;2023-02-07T09:43:12;11.13;;;8.57;;
10894;SDS011;5500;49.886;8.074;2023-02-07T09:45:44;11.20;;;8.27;;
10894;SDS011;5500;49.886;8.074;2023-02-07T09:48:15;11.03;;;7.87;;
10894;SDS011;5500;49.886;8.074;2023-02-07T09:50:47;12.03;;;8.60;;
10894;SDS011;5500;49.886;8.074;2023-02-07T09:53:19;9.40;;;7.47;;
10894;SDS011;5500;49.886;8.074;2023-02-07T09:55:50;11.87;;;8.73;;
10894;SDS011;5500;49.886;8.074;2023-02-07T09:58:22;10.00;;;7.80;;
10894;SDS011;5500;49.886;8.074;2023-02-07T10:00:58;12.97;;;8.17;;
10894;SDS011;5500;49.886;8.074;2023-02-07T10:03:29;12.20;;;8.17;;
10894;SDS011;5500;49.886;8.074;2023-02-07T10:05:58;11.63;;;8.53;;
10894;SDS011;5500;49.886;8.074;2023-02-07T10:08:42;9.67;;;7.23;;
10894;SDS011;5500;49.886;8.074;2023-02-07T10:11:12;12.57;;;8.70;;
10894;SDS011;5500;49.886;8.074;2023-02-07T10:13:57;10.23;;;8.07;;
10894;SDS011;5500;49.886;8.074;2023-02-07T10:16:41;10.67;;;8.13;;
10894;SDS011;5500;49.886;8.074;2023-02-07T10:19:16;8.63;;;7.30;;
10894;SDS011;5500;49.886;8.074;2023-02-07T10:21:53;9.23;;;7.33;;
10894;SDS011;5500;49.886;8.074;2023-02-07T10:24:28;13.30;;;7.70;;
10894;SDS011;5500;49.886;8.074;2023-02-07T10:27:21;8.87;;;7.07;;
10894;SDS011;5500;49.886;8.074;2023-02-07T10:29:53;11.77;;;7.70;;
10894;SDS011;5500;49.886;8.074;2023-02-07T10:32:23;11.20;;;7.70;;
10894;SDS011;5500;49.886;8.074;2023-02-07T10:34:54;14.03;;;7.63;;
10894;SDS011;5500;49.886;8.074;2023-02-07T10:37:23;13.37;;;8.97;;
10894;SDS011;5500;49.886;8.074;2023-02-07T10:39:56;15.70;;;8.43;;
10894;SDS011;5500;49.886;8.074;2023-02-07T10:42:28;14.07;;;9.20;;
10894;SDS011;5500;49.886;8.074;2023-02-07T10:44:56;10.67;;;7.13;;
10894;SDS011;5500;49.886;8.074;2023-02-07T10:47:24;13.47;;;8.07;;
10894;SDS011;5500;49.886;8.074;2023-02-07T10:49:53;11.07;;;7.77;;
10894;SDS011;5500;49.886;8.074;2023-02-07T10:52:25;10.13;;;7.07;;
10894;SDS011;5500;49.886;8.074;2023-02-07T10:54:54;11.37;;;6.93;;
10894;SDS011;5500;49.886;8.074;2023-02-07T10:57:24;11.70;;;7.30;;
10894;SDS011;5500;49.886;8.074;2023-02-07T10:59:59;11.20;;;8.10;;
10894;SDS011;5500;49.886;8.074;2023-02-07T11:02:37;9.90;;;7.63;;
10894;SDS011;5500;49.886;8.074;2023-02-07T11:08:04;9.93;;;7.53;;
10894;SDS011;5500;49.886;8.074;2023-02-07T11:10:37;10.23;;;8.17;;
10894;SDS011;5500;49.886;8.074;2023-02-07T11:13:10;11.90;;;8.33;;
10894;SDS011;5500;49.886;8.074;2023-02-07T11:15:45;10.13;;;7.50;;
10894;SDS011;5500;49.886;8.074;2023-02-07T11:18:24;10.30;;;7.60;;
10894;SDS011;5500;49.886;8.074;2023-02-07T11:20:56;12.97;;;8.20;;
10894;SDS011;5500;49.886;8.074;2023-02-07T11:23:23;11.27;;;8.57;;
10894;SDS011;5500;49.886;8.074;2023-02-07T11:25:52;10.27;;;8.33;;
10894;SDS011;5500;49.886;8.074;2023-02-07T11:28:21;9.77;;;7.37;;
10894;SDS011;5500;49.886;8.074;2023-02-07T11:30:51;12.03;;;8.10;;
10894;SDS011;5500;49.886;8.074;2023-02-07T11:33:24;9.03;;;7.43;;
10894;SDS011;5500;49.886;8.074;2023-02-07T11:36:05;10.23;;;7.83;;
10894;SDS011;5500;49.886;8.074;2023-02-07T11:38:38;9.07;;;7.67;;
10894;SDS011;5500;49.886;8.074;2023-02-07T11:41:14;10.40;;;8.40;;
10894;SDS011;5500;49.886;8.074;2023-02-07T11:43:50;12.47;;;8.00;;
10894;SDS011;5500;49.886;8.074;2023-02-07T11:46:23;11.60;;;8.47;;
10894;SDS011;5500;49.886;8.074;2023-02-07T11:48:57;9.63;;;7.90;;
10894;SDS011;5500;49.886;8.074;2023-02-07T11:51:28;11.47;;;7.73;;
10894;SDS011;5500;49.886;8.074;2023-02-07T11:53:58;9.97;;;7.57;;
10894;SDS011;5500;49.886;8.074;2023-02-07T11:56:28;9.03;;;7.13;;
10894;SDS011;5500;49.886;8.074;2023-02-07T11:58:57;8.47;;;6.77;;
10894;SDS011;5500;49.886;8.074;2023-02-07T12:01:26;11.13;;;7.43;;
10894;SDS011;5500;49.886;8.074;2023-02-07T12:03:55;9.63;;;7.33;;
10894;SDS011;5500;49.886;8.074;2023-02-07T12:06:30;10.33;;;7.27;;
10894;SDS011;5500;49.886;8.074;2023-02-07T12:09:01;9.70;;;7.23;;
10894;SDS011;5500;49.886;8.074;2023-02-07T12:11:32;9.03;;;6.60;;
10894;SDS011;5500;49.886;8.074;2023-02-07T12:14:04;8.43;;;6.50;;
10894;SDS011;5500;49.886;8.074;2023-02-07T12:16:37;9.73;;;7.03;;
10894;SDS011;5500;49.886;8.074;2023-02-07T12:19:10;8.10;;;6.53;;
10894;SDS011;5500;49.886;8.074;2023-02-07T12:21:43;7.17;;;6.43;;
10894;SDS011;5500;49.886;8.074;2023-02-07T12:24:19;10.87;;;6.77;;
10894;SDS011;5500;49.886;8.074;2023-02-07T12:26:50;8.57;;;6.87;;
10894;SDS011;5500;49.886;8.074;2023-02-07T12:29:23;7.53;;;5.97;;
10894;SDS011;5500;49.886;8.074;2023-02-07T12:31:55;9.63;;;7.03;;
10894;SDS011;5500;49.886;8.074;2023-02-07T12:34:29;9.57;;;6.07;;
10894;SDS011;5500;49.886;8.074;2023-02-07T12:37:02;7.73;;;5.87;;
10894;SDS011;5500;49.886;8.074;2023-02-07T12:39:35;8.17;;;5.93;;
10894;SDS011;5500;49.886;8.074;2023-02-07T12:42:12;7.90;;;6.10;;
10894;SDS011;5500;49.886;8.074;2023-02-07T12:44:55;8.97;;;6.23;;
10894;SDS011;5500;49.886;8.074;2023-02-07T12:47:27;9.93;;;7.10;;
10894;SDS011;5500;49.886;8.074;2023-02-07T12:50:08;7.33;;;5.97;;
10894;SDS011;5500;49.886;8.074;2023-02-07T12:52:43;8.47;;;6.43;;
10894;SDS011;5500;49.886;8.074;2023-02-07T12:55:21;7.73;;;6.03;;
10894;SDS011;5500;49.886;8.074;2023-02-07T12:57:56;7.67;;;6.17;;
10894;SDS011;5500;49.886;8.074;2023-02-07T13:00:30;9.73;;;6.57;;
10894;SDS011;5500;49.886;8.074;2023-02-07T13:03:07;7.73;;;5.67;;
10894;SDS011;5500;49.886;8.074;2023-02-07T13:05:47;11.73;;;7.10;;
10894;SDS011;5500;49.886;8.074;2023-02-07T13:08:23;7.53;;;6.50;;
10894;SDS011;5500;49.886;8.074;2023-02-07T13:10:59;9.87;;;7.03;;
10894;SDS011;5500;49.886;8.074;2023-02-07T13:13:34;9.27;;;6.73;;
10894;SDS011;5500;49.886;8.074;2023-02-07T13:16:06;11.23;;;7.53;;
10894;SDS011;5500;49.886;8.074;2023-02-07T13:18:39;9.20;;;7.57;;
10894;SDS011;5500;49.886;8.074;2023-02-07T13:21:12;8.33;;;6.87;;
10894;SDS011;5500;49.886;8.074;2023-02-07T13:23:46;10.30;;;6.90;;
10894;SDS011;5500;49.886;8.074;2023-02-07T13:26:15;9.90;;;7.00;;
10894;SDS011;5500;49.886;8.074;2023-02-07T13:28:46;8.80;;;6.73;;
10894;SDS011;5500;49.886;8.074;2023-02-07T13:31:16;9.10;;;7.13;;
10894;SDS011;5500;49.886;8.074;2023-02-07T13:33:46;11.97;;;7.60;;
10894;SDS011;5500;49.886;8.074;2023-02-07T13:36:15;10.40;;;7.07;;
10894;SDS011;5500;49.886;8.074;2023-02-07T13:38:52;9.63;;;7.23;;
10894;SDS011;5500;49.886;8.074;2023-02-07T13:41:29;9.97;;;7.37;;
10894;SDS011;5500;49.886;8.074;2023-02-07T13:44:10;10.03;;;7.43;;
10894;SDS011;5500;49.886;8.074;2023-02-07T13:46:48;11.57;;;7.20;;
10894;SDS011;5500;49.886;8.074;2023-02-07T13:49:23;8.47;;;6.97;;
10894;SDS011;5500;49.886;8.074;2023-02-07T13:51:57;9.60;;;7.73;;
10894;SDS011;5500;49.886;8.074;2023-02-07T13:54:30;9.63;;;7.57;;
10894;SDS011;5500;49.886;8.074;2023-02-07T13:57:02;10.53;;;7.50;;
10894;SDS011;5500;49.886;8.074;2023-02-07T14:02:47;11.17;;;7.47;;
10894;SDS011;5500;49.886;8.074;2023-02-07T14:05:18;13.20;;;8.37;;
10894;SDS011;5500;49.886;8.074;2023-02-07T14:07:49;11.23;;;7.67;;
10894;SDS011;5500;49.886;8.074;2023-02-07T14:10:40;9.47;;;7.60;;
10894;SDS011;5500;49.886;8.074;2023-02-07T14:13:26;10.70;;;7.47;;
10894;SDS011;5500;49.886;8.074;2023-02-07T14:16:00;11.00;;;7.03;;
10894;SDS011;5500;49.886;8.074;2023-02-07T14:18:36;10.70;;;6.67;;
10894;SDS011;5500;49.886;8.074;2023-02-07T14:21:19;8.70;;;6.80;;
10894;SDS011;5500;49.886;8.074;2023-02-07T14:23:57;11.90;;;7.37;;
10894;SDS011;5500;49.886;8.074;2023-02-07T14:26:41;8.33;;;6.80;;
10894;SDS011;5500;49.886;8.074;2023-02-07T14:35:30;11.77;;;7.50;;
10894;SDS011;5500;49.886;8.074;2023-02-07T14:38:01;10.67;;;6.90;;
10894;SDS011;5500;49.886;8.074;2023-02-07T14:40:52;8.53;;;6.93;;
10894;SDS011;5500;49.886;8.074;2023-02-07T14:43:40;10.47;;;6.93;;
10894;SDS011;5500;49.886;8.074;2023-02-07T14:46:11;16.77;;;8.10;;
10894;SDS011;5500;49.886;8.074;2023-02-07T14:48:46;8.17;;;6.63;;
10894;SDS011;5500;49.886;8.074;2023-02-07T14:51:18;10.00;;;7.40;;
10894;SDS011;5500;49.886;8.074;2023-02-07T14:53:50;11.43;;;8.07;;
10894;SDS011;5500;49.886;8.074;2023-02-07T14:56:28;9.17;;;6.47;;
10894;SDS011;5500;49.886;8.074;2023-02-07T14:59:04;8.70;;;6.80;;
10894;SDS011;5500;49.886;8.074;2023-02-07T15:01:32;9.83;;;7.10;;
10894;SDS011;5500;49.886;8.074;2023-02-07T15:04:00;8.77;;;6.20;;
10894;SDS011;5500;49.886;8.074;2023-02-07T15:06:34;8.37;;;6.10;;
10894;SDS011;5500;49.886;8.074;2023-02-07T15:09:03;11.70;;;6.40;;
10894;SDS011;5500;49.886;8.074;2023-02-07T15:11:31;12.53;;;6.47;;
10894;SDS011;5500;49.886;8.074;2023-02-07T15:13:59;9.37;;;6.67;;
10894;SDS011;5500;49.886;8.074;2023-02-07T15:16:28;11.57;;;6.53;;
10894;SDS011;5500;49.886;8.074;2023-02-07T15:18:59;7.93;;;6.13;;
10894;SDS011;5500;49.886;8.074;2023-02-07T15:21:31;12.50;;;8.30;;
10894;SDS011;5500;49.886;8.074;2023-02-07T15:24:02;10.30;;;7.17;;
10894;SDS011;5500;49.886;8.074;2023-02-07T15:26:31;9.53;;;6.87;;
10894;SDS011;5500;49.886;8.074;2023-02-07T15:29:00;7.80;;;6.57;;
10894;SDS011;5500;49.886;8.074;2023-02-07T15:31:31;9.17;;;6.70;;
10894;SDS011;5500;49.886;8.074;2023-02-07T15:34:04;9.80;;;6.27;;
10894;SDS011;5500;49.886;8.074;2023-02-07T15:36:36;10.73;;;7.00;;
10894;SDS011;5500;49.886;8.074;2023-02-07T15:39:06;8.97;;;6.83;;
10894;SDS011;5500;49.886;8.074;2023-02-07T15:41:39;10.07;;;6.93;;
10894;SDS011;5500;49.886;8.074;2023-02-07T15:44:07;8.17;;;6.80;;
10894;SDS011;5500;49.886;8.074;2023-02-07T15:46:47;8.80;;;6.10;;
10894;SDS011;5500;49.886;8.074;2023-02-07T15:52:10;9.87;;;6.90;;
10894;SDS011;5500;49.886;8.074;2023-02-07T15:54:43;9.63;;;7.10;;
10894;SDS011;5500;49.886;8.074;2023-02-07T15:57:12;12.93;;;7.67;;
10894;SDS011;5500;49.886;8.074;2023-02-07T15:59:45;9.83;;;7.40;;
10894;SDS011;5500;49.886;8.074;2023-02-07T16:02:24;10.50;;;7.20;;
10894;SDS011;5500;49.886;8.074;2023-02-07T16:04:55;12.63;;;6.93;;
10894;SDS011;5500;49.886;8.074;2023-02-07T16:07:24;9.87;;;7.23;;